Huang Shan, China
Current Conditions -  °F | °C
As of 1:00 PM on Thursday 18 Dec 2014 (Local Time) from ZSNJ Reporting Station
Clear Clear  
Wind Chill: 43°   Ceiling: Unl
Heat Index: 48°   Visibility: 6mi
Dew Point: 10°   Wind: 11mph
Humidity: 22%   Direction: 120°ESE
Pressure: 30.48"   Gusts: NA
Location:  30.13°N, 118.15°E
Report Text: ZSNJ 180500Z 12005MPS CAVOK 09/M12 Q1032 NOSIG
Loading
Personal Weather Stations






























Interactive Weather Map New forecast layout! Learn more

10-Day Weather Forecast

Advertisements
Track Severe Weather on mobile